Duke Field,(Eglin Af Aux Nr 3) Airport
KEGI : rendu visible

Aérodrome :











RETROUVEZ-NOUS SUR...

 
LOGIN :

S'inscrire | Disclaimer

   EN    FR    IT 

 









Légende :    VFR   VFR Marginal   IFR   IFR Intensif   IFR Très Intensif
Visi : 
Plafond : 
>= 8 km
>= 3000ft
5 à 8 km
1000 à 3000 ft
1500m à 5 km
500 à 1000 ft
800 à 1500m
200 à 500 ft
< 800m
< 200 ft
Symboles :   Orages  Brouillard  Fortes neiges  Fortes précipitations  Vent > 20 kt







- Altitude de l'aérodrome : 191 ft


KEGI - Duke Field,(Eglin Af Aux Nr 3)

DERNIER METAR :
  • 201356Z AUTO 26014G22KT 10SM CLR 16/06 A2994 RMK AO2 SLP140 T01570061 $

METARs EXPIRÉS :
  • 201256Z AUTO 26010KT 10SM CLR 13/06 A2992 RMK AO2 SLP133 T01280059 $
  • 201156Z AUTO 25007KT 10SM CLR 10/05 A2991 RMK AO2 SLP130 70001 T00970053 10102 20081 52013 $

TAF TAF KEGI
Valide du 20 à 01h jusqu'au 21 à 07h UTC


200100Z 2001/2107 29009KT 9999 FEW025 SCT060 QNH2976INS
BECMG 2013/2014 30015G20KT 9999 SKC QNH2995INS
BECMG 2023/2024 32009KT 9999 SKC QNH2992INS TX20/2020Z TN08/2011Z LAST NO AMDS AFT 2005 NEXT 2209
FIR KZJX / Amérique du Nord



MET'MAP, la Météo Aéronautique d'un coup d'oeil ! - Copyright ORBIFLY Décembre 2007 - Disclaimer

ORBIFLY MET'MAP TEAM :

Programmation & Développement : Alexandra Zaïnal
Conception & Développement : Baudouin d'Aumeries
Co-Programmation & Développement : Marc-Olivier Méhu
Soutien technique & logistique : Manuel Goepfert

Contact : metmap@orbifly.com




SOURCES & CREDITS :

   NOAA       Earth
Advisory